sensor_id;sensor_type;location;lat;lon;timestamp;pressure;altitude;pressure_sealevel;temperature;humidity
69574;BME280;62840;52.366;5.980;2023-05-02T00:02:22;101838.31;;;11.86;65.60
69574;BME280;62840;52.366;5.980;2023-05-02T00:04:51;101839.16;;;11.86;65.20
69574;BME280;62840;52.366;5.980;2023-05-02T00:07:17;101835.50;;;11.87;65.39
69574;BME280;62840;52.366;5.980;2023-05-02T00:09:43;101844.25;;;11.89;65.34
69574;BME280;62840;52.366;5.980;2023-05-02T00:12:08;101839.66;;;11.91;65.42
69574;BME280;62840;52.366;5.980;2023-05-02T00:14:34;101836.88;;;11.93;65.36
69574;BME280;62840;52.366;5.980;2023-05-02T00:17:00;101836.03;;;11.93;65.34
69574;BME280;62840;52.366;5.980;2023-05-02T00:19:26;101845.75;;;11.94;65.30
69574;BME280;62840;52.366;5.980;2023-05-02T00:21:54;101834.22;;;11.93;65.44
69574;BME280;62840;52.366;5.980;2023-05-02T00:24:20;101847.44;;;11.95;65.58
69574;BME280;62840;52.366;5.980;2023-05-02T00:26:45;101842.09;;;11.95;65.36
69574;BME280;62840;52.366;5.980;2023-05-02T00:29:11;101840.16;;;11.97;65.35
69574;BME280;62840;52.366;5.980;2023-05-02T00:31:39;101841.16;;;11.96;65.35
69574;BME280;62840;52.366;5.980;2023-05-02T00:34:05;101838.47;;;11.96;65.33
69574;BME280;62840;52.366;5.980;2023-05-02T00:36:31;101842.09;;;11.95;65.58
69574;BME280;62840;52.366;5.980;2023-05-02T00:38:59;101849.16;;;11.96;65.45
69574;BME280;62840;52.366;5.980;2023-05-02T00:41:24;101853.53;;;11.97;65.61
69574;BME280;62840;52.366;5.980;2023-05-02T00:43:50;101861.56;;;11.97;65.80
69574;BME280;62840;52.366;5.980;2023-05-02T00:46:16;101864.13;;;11.98;65.90
69574;BME280;62840;52.366;5.980;2023-05-02T00:48:42;101867.78;;;11.97;65.89
69574;BME280;62840;52.366;5.980;2023-05-02T00:51:08;101872.25;;;11.97;66.08
69574;BME280;62840;52.366;5.980;2023-05-02T00:53:34;101873.22;;;11.96;66.13
69574;BME280;62840;52.366;5.980;2023-05-02T00:56:04;101868.84;;;11.95;66.13
69574;BME280;62840;52.366;5.980;2023-05-02T00:58:30;101873.47;;;11.93;66.19
69574;BME280;62840;52.366;5.980;2023-05-02T01:01:03;101879.75;;;11.91;66.31
69574;BME280;62840;52.366;5.980;2023-05-02T01:03:40;101873.56;;;11.91;66.56
69574;BME280;62840;52.366;5.980;2023-05-02T01:06:30;101888.00;;;11.88;66.37
69574;BME280;62840;52.366;5.980;2023-05-02T01:09:15;101899.22;;;11.81;66.79
69574;BME280;62840;52.366;5.980;2023-05-02T01:11:59;101895.19;;;11.75;67.07
69574;BME280;62840;52.366;5.980;2023-05-02T01:14:30;101895.63;;;11.69;66.90
69574;BME280;62840;52.366;5.980;2023-05-02T01:17:02;101888.56;;;11.68;66.88
69574;BME280;62840;52.366;5.980;2023-05-02T01:19:34;101885.34;;;11.63;66.93
69574;BME280;62840;52.366;5.980;2023-05-02T01:22:05;101888.03;;;11.63;66.78
69574;BME280;62840;52.366;5.980;2023-05-02T01:24:39;101889.00;;;11.62;66.96
69574;BME280;62840;52.366;5.980;2023-05-02T01:27:21;101892.63;;;11.61;66.95
69574;BME280;62840;52.366;5.980;2023-05-02T01:29:56;101896.50;;;11.57;66.69
69574;BME280;62840;52.366;5.980;2023-05-02T01:32:25;101902.03;;;11.54;66.73
69574;BME280;62840;52.366;5.980;2023-05-02T01:34:55;101889.75;;;11.51;66.72
69574;BME280;62840;52.366;5.980;2023-05-02T01:37:23;101897.84;;;11.49;66.53
69574;BME280;62840;52.366;5.980;2023-05-02T01:39:53;101902.47;;;11.47;66.63
69574;BME280;62840;52.366;5.980;2023-05-02T01:42:21;101904.41;;;11.45;66.53
69574;BME280;62840;52.366;5.980;2023-05-02T01:44:50;101900.97;;;11.43;66.82
69574;BME280;62840;52.366;5.980;2023-05-02T01:47:24;101906.50;;;11.40;66.50
69574;BME280;62840;52.366;5.980;2023-05-02T01:49:54;101908.44;;;11.38;66.36
69574;BME280;62840;52.366;5.980;2023-05-02T01:52:23;101914.75;;;11.37;66.41
69574;BME280;62840;52.366;5.980;2023-05-02T01:54:52;101919.34;;;11.35;66.36
69574;BME280;62840;52.366;5.980;2023-05-02T01:57:22;101918.50;;;11.35;66.33
69574;BME280;62840;52.366;5.980;2023-05-02T01:59:49;101910.56;;;11.33;66.24
69574;BME280;62840;52.366;5.980;2023-05-02T02:02:18;101917.84;;;11.31;66.06
69574;BME280;62840;52.366;5.980;2023-05-02T02:04:46;101922.41;;;11.29;66.02
69574;BME280;62840;52.366;5.980;2023-05-02T02:07:14;101925.09;;;11.29;65.91
69574;BME280;62840;52.366;5.980;2023-05-02T02:09:40;101933.31;;;11.26;65.98
69574;BME280;62840;52.366;5.980;2023-05-02T02:12:09;101936.00;;;11.26;65.68
69574;BME280;62840;52.366;5.980;2023-05-02T02:14:38;101941.34;;;11.26;65.87
69574;BME280;62840;52.366;5.980;2023-05-02T02:17:13;101946.69;;;11.26;65.87
69574;BME280;62840;52.366;5.980;2023-05-02T02:19:49;101952.09;;;11.24;65.78
69574;BME280;62840;52.366;5.980;2023-05-02T02:22:19;101958.22;;;11.26;65.68
69574;BME280;62840;52.366;5.980;2023-05-02T02:24:48;101957.34;;;11.26;65.48
69574;BME280;62840;52.366;5.980;2023-05-02T02:27:17;101961.00;;;11.25;65.64
69574;BME280;62840;52.366;5.980;2023-05-02T02:29:43;101961.84;;;11.25;65.59
69574;BME280;62840;52.366;5.980;2023-05-02T02:32:09;101962.69;;;11.26;65.42
69574;BME280;62840;52.366;5.980;2023-05-02T02:34:37;101961.00;;;11.25;65.57
69574;BME280;62840;52.366;5.980;2023-05-02T02:37:07;101960.25;;;11.23;65.53
69574;BME280;62840;52.366;5.980;2023-05-02T02:39:44;101971.88;;;11.22;65.49
69574;BME280;62840;52.366;5.980;2023-05-02T02:42:26;101972.09;;;11.19;65.47
69574;BME280;62840;52.366;5.980;2023-05-02T02:45:07;101979.34;;;11.17;65.37
69574;BME280;62840;52.366;5.980;2023-05-02T02:47:43;101974.00;;;11.17;65.47
69574;BME280;62840;52.366;5.980;2023-05-02T02:50:23;101975.06;;;11.14;65.42
69574;BME280;62840;52.366;5.980;2023-05-02T02:52:59;101981.25;;;11.15;65.23
69574;BME280;62840;52.366;5.980;2023-05-02T02:55:35;101983.06;;;11.14;65.08
69574;BME280;62840;52.366;5.980;2023-05-02T02:58:14;101984.91;;;11.14;64.91
69574;BME280;62840;52.366;5.980;2023-05-02T03:00:46;101997.50;;;11.12;65.05
69574;BME280;62840;52.366;5.980;2023-05-02T03:03:14;102003.00;;;11.08;64.99
69574;BME280;62840;52.366;5.980;2023-05-02T03:05:45;102004.84;;;11.08;65.01
69574;BME280;62840;52.366;5.980;2023-05-02T03:08:11;102004.94;;;11.06;65.24
69574;BME280;62840;52.366;5.980;2023-05-02T03:10:37;102012.00;;;11.07;65.33
69574;BME280;62840;52.366;5.980;2023-05-02T03:13:02;102014.75;;;11.06;65.15
69574;BME280;62840;52.366;5.980;2023-05-02T03:16:05;102018.50;;;11.03;65.20
69574;BME280;62840;52.366;5.980;2023-05-02T03:18:49;102035.88;;;10.96;65.01
69574;BME280;62840;52.366;5.980;2023-05-02T03:21:17;102032.66;;;10.91;65.02
69574;BME280;62840;52.366;5.980;2023-05-02T03:23:43;102029.38;;;10.86;65.16
69574;BME280;62840;52.366;5.980;2023-05-02T03:26:08;102039.50;;;10.81;65.32
69574;BME280;62840;52.366;5.980;2023-05-02T03:28:34;102044.06;;;10.79;65.47
69574;BME280;62840;52.366;5.980;2023-05-02T03:31:00;102054.94;;;10.76;65.61
69574;BME280;62840;52.366;5.980;2023-05-02T03:33:26;102042.75;;;10.72;65.90
69574;BME280;62840;52.366;5.980;2023-05-02T03:35:52;102051.91;;;10.67;65.85
69574;BME280;62840;52.366;5.980;2023-05-02T03:38:20;102057.44;;;10.64;65.96
69574;BME280;62840;52.366;5.980;2023-05-02T03:40:46;102069.19;;;10.62;66.05
69574;BME280;62840;52.366;5.980;2023-05-02T03:43:11;102068.50;;;10.58;66.03
69574;BME280;62840;52.366;5.980;2023-05-02T03:45:37;102066.97;;;10.54;65.99
69574;BME280;62840;52.366;5.980;2023-05-02T03:48:03;102065.44;;;10.50;65.95
69574;BME280;62840;52.366;5.980;2023-05-02T03:50:28;102065.66;;;10.47;65.93
69574;BME280;62840;52.366;5.980;2023-05-02T03:52:54;102072.03;;;10.44;65.77
69574;BME280;62840;52.366;5.980;2023-05-02T03:55:22;102077.47;;;10.43;65.70
69574;BME280;62840;52.366;5.980;2023-05-02T03:57:48;102079.34;;;10.41;65.68
69574;BME280;62840;52.366;5.980;2023-05-02T04:00:14;102084.81;;;10.39;65.63
69574;BME280;62840;52.366;5.980;2023-05-02T04:02:40;102085.84;;;10.37;65.73
69574;BME280;62840;52.366;5.980;2023-05-02T04:05:06;102086.88;;;10.34;65.59
69574;BME280;62840;52.366;5.980;2023-05-02T04:07:32;102094.22;;;10.31;65.27
69574;BME280;62840;52.366;5.980;2023-05-02T04:09:58;102097.28;;;10.24;65.23
69574;BME280;62840;52.366;5.980;2023-05-02T04:12:26;102100.03;;;10.23;65.30
69574;BME280;62840;52.366;5.980;2023-05-02T04:14:52;102108.13;;;10.21;65.16
69574;BME280;62840;52.366;5.980;2023-05-02T04:17:17;102110.97;;;10.18;65.04
69574;BME280;62840;52.366;5.980;2023-05-02T04:19:43;102110.41;;;10.13;65.13
69574;BME280;62840;52.366;5.980;2023-05-02T04:22:09;102108.78;;;10.11;65.20
69574;BME280;62840;52.366;5.980;2023-05-02T04:24:34;102124.84;;;10.09;65.01
69574;BME280;62840;52.366;5.980;2023-05-02T04:27:00;102121.41;;;10.07;65.05
69574;BME280;62840;52.366;5.980;2023-05-02T04:29:28;102125.91;;;10.07;64.95
69574;BME280;62840;52.366;5.980;2023-05-02T04:31:54;102133.97;;;10.05;64.98
69574;BME280;62840;52.366;5.980;2023-05-02T04:34:20;102134.16;;;10.02;64.91
69574;BME280;62840;52.366;5.980;2023-05-02T04:36:46;102148.63;;;9.98;64.91
69574;BME280;62840;52.366;5.980;2023-05-02T04:39:12;102150.72;;;9.93;64.69
69574;BME280;62840;52.366;5.980;2023-05-02T04:41:38;102149.94;;;9.91;65.01
69574;BME280;62840;52.366;5.980;2023-05-02T04:44:04;102155.47;;;9.88;64.99
69574;BME280;62840;52.366;5.980;2023-05-02T04:46:32;102160.88;;;9.86;64.88
69574;BME280;62840;52.366;5.980;2023-05-02T04:48:58;102167.06;;;9.87;64.93
69574;BME280;62840;52.366;5.980;2023-05-02T04:51:24;102174.47;;;9.81;64.78
69574;BME280;62840;52.366;5.980;2023-05-02T04:53:49;102179.94;;;9.78;65.00
69574;BME280;62840;52.366;5.980;2023-05-02T04:56:15;102181.00;;;9.76;64.77
69574;BME280;62840;52.366;5.980;2023-05-02T04:58:41;102183.75;;;9.74;64.65
69574;BME280;62840;52.366;5.980;2023-05-02T05:01:06;102190.88;;;9.74;64.62
69574;BME280;62840;52.366;5.980;2023-05-02T05:03:35;102197.09;;;9.74;64.49
69574;BME280;62840;52.366;5.980;2023-05-02T05:06:01;102203.44;;;9.72;64.49
69574;BME280;62840;52.366;5.980;2023-05-02T05:08:27;102217.78;;;9.69;64.30
69574;BME280;62840;52.366;5.980;2023-05-02T05:10:52;102210.94;;;9.65;64.13
69574;BME280;62840;52.366;5.980;2023-05-02T05:13:18;102224.31;;;9.63;64.18
69574;BME280;62840;52.366;5.980;2023-05-02T05:15:44;102221.75;;;9.62;64.11
69574;BME280;62840;52.366;5.980;2023-05-02T05:18:10;102223.47;;;9.63;64.15
69574;BME280;62840;52.366;5.980;2023-05-02T05:20:38;102226.03;;;9.65;64.09
69574;BME280;62840;52.366;5.980;2023-05-02T05:23:04;102232.25;;;9.65;63.98
69574;BME280;62840;52.366;5.980;2023-05-02T05:25:29;102234.91;;;9.65;63.90
69574;BME280;62840;52.366;5.980;2023-05-02T05:27:55;102228.63;;;9.66;63.63
69574;BME280;62840;52.366;5.980;2023-05-02T05:30:21;102235.84;;;9.64;63.53
69574;BME280;62840;52.366;5.980;2023-05-02T05:32:46;102243.22;;;9.59;63.38
69574;BME280;62840;52.366;5.980;2023-05-02T05:35:12;102243.38;;;9.56;63.63
69574;BME280;62840;52.366;5.980;2023-05-02T05:37:41;102248.03;;;9.52;63.60
69574;BME280;62840;52.366;5.980;2023-05-02T05:40:08;102249.84;;;9.52;63.64
69574;BME280;62840;52.366;5.980;2023-05-02T05:42:34;102252.50;;;9.52;63.40
69574;BME280;62840;52.366;5.980;2023-05-02T05:45:00;102261.44;;;9.51;63.13
69574;BME280;62840;52.366;5.980;2023-05-02T05:47:25;102256.28;;;9.48;63.28
69574;BME280;62840;52.366;5.980;2023-05-02T05:49:52;102270.38;;;9.50;63.22
69574;BME280;62840;52.366;5.980;2023-05-02T05:52:18;102266.75;;;9.51;63.15
69574;BME280;62840;52.366;5.980;2023-05-02T05:54:46;102269.41;;;9.51;63.05
69574;BME280;62840;52.366;5.980;2023-05-02T05:57:12;102273.03;;;9.50;63.06
69574;BME280;62840;52.366;5.980;2023-05-02T05:59:38;102281.03;;;9.50;63.33
69574;BME280;62840;52.366;5.980;2023-05-02T06:02:04;102286.19;;;9.53;63.41
69574;BME280;62840;52.366;5.980;2023-05-02T06:04:30;102286.00;;;9.56;63.59
69574;BME280;62840;52.366;5.980;2023-05-02T06:06:56;102285.84;;;9.59;63.32
69574;BME280;62840;52.366;5.980;2023-05-02T06:09:22;102296.50;;;9.59;63.23
69574;BME280;62840;52.366;5.980;2023-05-02T06:11:50;102302.69;;;9.59;63.34
69574;BME280;62840;52.366;5.980;2023-05-02T06:14:16;102305.41;;;9.58;63.20
69574;BME280;62840;52.366;5.980;2023-05-02T06:16:41;102311.72;;;9.57;62.97
69574;BME280;62840;52.366;5.980;2023-05-02T06:19:07;102310.84;;;9.56;63.00
69574;BME280;62840;52.366;5.980;2023-05-02T06:21:35;102317.81;;;9.59;62.92
69574;BME280;62840;52.366;5.980;2023-05-02T06:24:01;102322.97;;;9.62;62.75
69574;BME280;62840;52.366;5.980;2023-05-02T06:26:26;102322.97;;;9.62;62.64
69574;BME280;62840;52.366;5.980;2023-05-02T06:28:56;102323.91;;;9.61;62.33
69574;BME280;62840;52.366;5.980;2023-05-02T06:31:21;102339.13;;;9.59;62.35
69574;BME280;62840;52.366;5.980;2023-05-02T06:33:47;102346.50;;;9.54;62.41
69574;BME280;62840;52.366;5.980;2023-05-02T06:36:13;102351.97;;;9.51;61.94
69574;BME280;62840;52.366;5.980;2023-05-02T06:38:39;102356.63;;;9.47;61.60
69574;BME280;62840;52.366;5.980;2023-05-02T06:41:05;102368.28;;;9.45;61.39
69574;BME280;62840;52.366;5.980;2023-05-02T06:43:31;102367.59;;;9.41;61.49
69574;BME280;62840;52.366;5.980;2023-05-02T06:45:59;102381.00;;;9.39;61.35
69574;BME280;62840;52.366;5.980;2023-05-02T06:48:25;102381.00;;;9.39;60.89
69574;BME280;62840;52.366;5.980;2023-05-02T06:50:51;102384.75;;;9.35;60.74
69574;BME280;62840;52.366;5.980;2023-05-02T06:53:17;102389.94;;;9.38;61.01
69574;BME280;62840;52.366;5.980;2023-05-02T06:55:43;102387.03;;;9.43;60.68
69574;BME280;62840;52.366;5.980;2023-05-02T06:58:10;102391.16;;;9.49;60.58
69574;BME280;62840;52.366;5.980;2023-05-02T07:00:36;102380.34;;;9.52;60.09
69574;BME280;62840;52.366;5.980;2023-05-02T07:03:04;102387.22;;;9.56;59.96
69574;BME280;62840;52.366;5.980;2023-05-02T07:05:30;102387.84;;;9.61;59.96
69574;BME280;62840;52.366;5.980;2023-05-02T07:07:56;102385.53;;;9.71;59.61
69574;BME280;62840;52.366;5.980;2023-05-02T07:10:21;102391.31;;;9.79;59.50
69574;BME280;62840;52.366;5.980;2023-05-02T07:12:47;102393.47;;;9.88;59.13
69574;BME280;62840;52.366;5.980;2023-05-02T07:15:13;102401.22;;;9.93;58.47
69574;BME280;62840;52.366;5.980;2023-05-02T07:17:39;102405.59;;;9.94;58.63
69574;BME280;62840;52.366;5.980;2023-05-02T07:20:08;102400.19;;;9.95;58.30
69574;BME280;62840;52.366;5.980;2023-05-02T07:22:34;102408.09;;;9.97;58.17
69574;BME280;62840;52.366;5.980;2023-05-02T07:25:01;102417.56;;;10.02;58.24
69574;BME280;62840;52.366;5.980;2023-05-02T07:27:27;102414.63;;;10.07;57.91
69574;BME280;62840;52.366;5.980;2023-05-02T07:29:53;102418.78;;;10.13;57.58
69574;BME280;62840;52.366;5.980;2023-05-02T07:32:19;102435.44;;;10.16;56.99
69574;BME280;62840;52.366;5.980;2023-05-02T07:34:45;102423.06;;;10.15;56.88
69574;BME280;62840;52.366;5.980;2023-05-02T07:37:13;102420.41;;;10.15;56.38
69574;BME280;62840;52.366;5.980;2023-05-02T07:39:39;102417.75;;;10.15;55.81
69574;BME280;62840;52.366;5.980;2023-05-02T07:42:05;102420.47;;;10.14;55.71
69574;BME280;62840;52.366;5.980;2023-05-02T07:44:31;102419.63;;;10.13;55.86
69574;BME280;62840;52.366;5.980;2023-05-02T07:46:57;102413.19;;;10.17;55.99
69574;BME280;62840;52.366;5.980;2023-05-02T07:49:22;102429.78;;;10.22;55.39
69574;BME280;62840;52.366;5.980;2023-05-02T07:51:48;102429.59;;;10.25;54.71
69574;BME280;62840;52.366;5.980;2023-05-02T07:54:17;102431.34;;;10.27;54.86
69574;BME280;62840;52.366;5.980;2023-05-02T07:56:44;102434.59;;;10.32;55.04
69574;BME280;62840;52.366;5.980;2023-05-02T07:59:10;102453.97;;;10.35;54.46
69574;BME280;62840;52.366;5.980;2023-05-02T08:01:36;102434.41;;;10.35;53.79
69574;BME280;62840;52.366;5.980;2023-05-02T08:04:02;102454.75;;;10.37;53.97
69574;BME280;62840;52.366;5.980;2023-05-02T08:06:28;102439.41;;;10.41;54.08
69574;BME280;62840;52.366;5.980;2023-05-02T08:08:54;102443.63;;;10.45;53.66
69574;BME280;62840;52.366;5.980;2023-05-02T08:11:23;102439.78;;;10.51;53.46
69574;BME280;62840;52.366;5.980;2023-05-02T08:13:49;102449.41;;;10.53;52.81
69574;BME280;62840;52.366;5.980;2023-05-02T08:16:15;102453.19;;;10.49;52.71
69574;BME280;62840;52.366;5.980;2023-05-02T08:18:40;102449.16;;;10.42;52.80
69574;BME280;62840;52.366;5.980;2023-05-02T08:21:06;102474.28;;;10.38;52.65
69574;BME280;62840;52.366;5.980;2023-05-02T08:23:32;102457.31;;;10.39;52.40
69574;BME280;62840;52.366;5.980;2023-05-02T08:25:57;102455.25;;;10.44;52.84
69574;BME280;62840;52.366;5.980;2023-05-02T08:28:26;102467.13;;;10.54;53.01
69574;BME280;62840;52.366;5.980;2023-05-02T08:30:52;102475.56;;;10.62;52.48
69574;BME280;62840;52.366;5.980;2023-05-02T08:33:17;102477.97;;;10.67;52.25
69574;BME280;62840;52.366;5.980;2023-05-02T08:35:43;102480.56;;;10.69;52.37
69574;BME280;62840;52.366;5.980;2023-05-02T08:38:09;102482.97;;;10.73;52.08
69574;BME280;62840;52.366;5.980;2023-05-02T08:40:36;102490.59;;;10.79;51.94
69574;BME280;62840;52.366;5.980;2023-05-02T08:43:03;102493.00;;;10.84;51.95
69574;BME280;62840;52.366;5.980;2023-05-02T08:45:34;102496.56;;;10.84;51.63
69574;BME280;62840;52.366;5.980;2023-05-02T08:48:00;102493.97;;;10.83;51.83
69574;BME280;62840;52.366;5.980;2023-05-02T08:50:27;102499.28;;;10.83;51.88
69574;BME280;62840;52.366;5.980;2023-05-02T08:52:55;102502.75;;;10.85;51.82
69574;BME280;62840;52.366;5.980;2023-05-02T08:55:23;102509.19;;;10.81;51.79
69574;BME280;62840;52.366;5.980;2023-05-02T08:57:50;102504.81;;;10.80;52.16
69574;BME280;62840;52.366;5.980;2023-05-02T09:00:16;102495.84;;;10.81;52.12
69574;BME280;62840;52.366;5.980;2023-05-02T09:02:55;102506.53;;;10.81;51.78
69574;BME280;62840;52.366;5.980;2023-05-02T09:05:32;102510.16;;;10.80;51.50
69574;BME280;62840;52.366;5.980;2023-05-02T09:08:05;102510.31;;;10.77;51.47
69574;BME280;62840;52.366;5.980;2023-05-02T09:10:33;102521.00;;;10.77;51.42
69574;BME280;62840;52.366;5.980;2023-05-02T09:16:03;102532.63;;;10.76;51.73
69574;BME280;62840;52.366;5.980;2023-05-02T09:18:34;102535.28;;;10.76;51.77
69574;BME280;62840;52.366;5.980;2023-05-02T09:21:04;102532.63;;;10.76;51.78
69574;BME280;62840;52.366;5.980;2023-05-02T09:23:32;102535.09;;;10.79;51.86
69574;BME280;62840;52.366;5.980;2023-05-02T09:25:59;102542.00;;;10.83;51.86
69574;BME280;62840;52.366;5.980;2023-05-02T09:28:37;102542.66;;;10.86;50.99
69574;BME280;62840;52.366;5.980;2023-05-02T09:31:06;102539.97;;;10.88;51.45
69574;BME280;62840;52.366;5.980;2023-05-02T09:33:35;102539.81;;;10.91;51.06
69574;BME280;62840;52.366;5.980;2023-05-02T09:36:01;102534.28;;;10.94;51.00
69574;BME280;62840;52.366;5.980;2023-05-02T09:38:28;102542.88;;;10.99;50.75
69574;BME280;62840;52.366;5.980;2023-05-02T09:40:54;102540.63;;;11.07;50.61
69574;BME280;62840;52.366;5.980;2023-05-02T09:43:20;102542.78;;;11.17;50.41
69574;BME280;62840;52.366;5.980;2023-05-02T09:45:55;102540.09;;;11.17;49.90
69574;BME280;62840;52.366;5.980;2023-05-02T09:48:21;102547.34;;;11.15;49.87
69574;BME280;62840;52.366;5.980;2023-05-02T09:50:49;102542.34;;;11.08;49.34
69574;BME280;62840;52.366;5.980;2023-05-02T09:53:15;102540.78;;;11.04;48.90
69574;BME280;62840;52.366;5.980;2023-05-02T09:55:41;102542.34;;;11.08;49.15
69574;BME280;62840;52.366;5.980;2023-05-02T09:58:19;102550.59;;;11.20;48.97
69574;BME280;62840;52.366;5.980;2023-05-02T10:00:45;102557.28;;;11.27;49.05
69574;BME280;62840;52.366;5.980;2023-05-02T10:03:15;102558.84;;;11.31;48.88
69574;BME280;62840;52.366;5.980;2023-05-02T10:05:43;102555.06;;;11.35;48.48
69574;BME280;62840;52.366;5.980;2023-05-02T10:08:12;102556.59;;;11.39;48.86
69574;BME280;62840;52.366;5.980;2023-05-02T10:10:45;102547.25;;;11.46;48.85
69574;BME280;62840;52.366;5.980;2023-05-02T10:13:16;102551.28;;;11.54;48.89
69574;BME280;62840;52.366;5.980;2023-05-02T10:15:48;102562.59;;;11.59;48.65
69574;BME280;62840;52.366;5.980;2023-05-02T10:18:24;102557.03;;;11.62;48.54
69574;BME280;62840;52.366;5.980;2023-05-02T10:20:56;102552.84;;;11.72;48.95
69574;BME280;62840;52.366;5.980;2023-05-02T10:23:27;102564.72;;;11.82;48.59
69574;BME280;62840;52.366;5.980;2023-05-02T10:25:54;102567.03;;;11.88;48.57
69574;BME280;62840;52.366;5.980;2023-05-02T10:28:22;102560.28;;;11.97;48.42
69574;BME280;62840;52.366;5.980;2023-05-02T10:30:48;102565.13;;;12.05;48.04
69574;BME280;62840;52.366;5.980;2023-05-02T10:33:16;102567.81;;;12.05;48.09
69574;BME280;62840;52.366;5.980;2023-05-02T10:35:43;102574.78;;;12.07;47.02
69574;BME280;62840;52.366;5.980;2023-05-02T10:38:10;102568.78;;;12.04;47.51
69574;BME280;62840;52.366;5.980;2023-05-02T10:40:41;102578.09;;;11.97;47.76
69574;BME280;62840;52.366;5.980;2023-05-02T10:43:14;102569.16;;;11.98;47.35
69574;BME280;62840;52.366;5.980;2023-05-02T10:45:41;102570.69;;;12.02;47.45
69574;BME280;62840;52.366;5.980;2023-05-02T10:48:17;102577.00;;;12.15;46.99
69574;BME280;62840;52.366;5.980;2023-05-02T10:50:47;102578.34;;;12.22;47.53
69574;BME280;62840;52.366;5.980;2023-05-02T10:53:24;102581.59;;;12.27;47.04
69574;BME280;62840;52.366;5.980;2023-05-02T10:56:17;102579.72;;;12.29;46.61
69574;BME280;62840;52.366;5.980;2023-05-02T10:58:44;102588.50;;;12.31;47.29
69574;BME280;62840;52.366;5.980;2023-05-02T11:01:32;102590.22;;;12.32;46.61
69574;BME280;62840;52.366;5.980;2023-05-02T11:03:59;102594.06;;;12.28;47.28
69574;BME280;62840;52.366;5.980;2023-05-02T11:06:28;102597.63;;;12.27;47.66
69574;BME280;62840;52.366;5.980;2023-05-02T11:11:59;102592.28;;;12.27;47.50
69574;BME280;62840;52.366;5.980;2023-05-02T11:14:42;102602.97;;;12.27;46.89
69574;BME280;62840;52.366;5.980;2023-05-02T11:17:09;102605.84;;;12.24;47.29
69574;BME280;62840;52.366;5.980;2023-05-02T11:22:49;102590.88;;;12.22;47.27
69574;BME280;62840;52.366;5.980;2023-05-02T11:25:29;102603.34;;;12.21;47.12
69574;BME280;62840;52.366;5.980;2023-05-02T11:27:58;102606.16;;;12.20;47.64
69574;BME280;62840;52.366;5.980;2023-05-02T11:30:44;102614.25;;;12.18;46.82
69574;BME280;62840;52.366;5.980;2023-05-02T11:33:15;102612.72;;;12.14;47.44
69574;BME280;62840;52.366;5.980;2023-05-02T11:35:43;102607.38;;;12.14;47.58
69574;BME280;62840;52.366;5.980;2023-05-02T11:38:11;102613.47;;;12.16;47.55
69574;BME280;62840;52.366;5.980;2023-05-02T11:40:37;102602.88;;;12.15;47.40
69574;BME280;62840;52.366;5.980;2023-05-02T11:43:14;102607.38;;;12.14;47.62
69574;BME280;62840;52.366;5.980;2023-05-02T11:45:42;102610.03;;;12.14;47.65
69574;BME280;62840;52.366;5.980;2023-05-02T11:48:09;102614.63;;;12.12;47.63
69574;BME280;62840;52.366;5.980;2023-05-02T11:50:40;102618.25;;;12.11;47.41
69574;BME280;62840;52.366;5.980;2023-05-02T11:53:09;102616.53;;;12.10;47.62
69574;BME280;62840;52.366;5.980;2023-05-02T11:55:36;102614.63;;;12.12;47.33
69574;BME280;62840;52.366;5.980;2023-05-02T11:58:02;102623.25;;;12.17;47.52
69574;BME280;62840;52.366;5.980;2023-05-02T12:00:31;102614.25;;;12.18;47.31
69574;BME280;62840;52.366;5.980;2023-05-02T12:02:56;102623.03;;;12.20;47.36
69574;BME280;62840;52.366;5.980;2023-05-02T12:05:27;102612.16;;;12.23;47.45
69574;BME280;62840;52.366;5.980;2023-05-02T12:07:53;102631.00;;;12.22;46.98
69574;BME280;62840;52.366;5.980;2023-05-02T12:10:19;102633.81;;;12.19;47.10
69574;BME280;62840;52.366;5.980;2023-05-02T12:12:45;102639.28;;;12.17;47.32
69574;BME280;62840;52.366;5.980;2023-05-02T12:15:11;102641.84;;;12.19;47.17
69574;BME280;62840;52.366;5.980;2023-05-02T12:17:40;102635.44;;;12.21;47.35
69574;BME280;62840;52.366;5.980;2023-05-02T12:20:09;102634.22;;;12.27;47.59
69574;BME280;62840;52.366;5.980;2023-05-02T12:22:36;102635.81;;;12.31;46.88
69574;BME280;62840;52.366;5.980;2023-05-02T12:25:03;102647.56;;;12.28;46.59
69574;BME280;62840;52.366;5.980;2023-05-02T12:27:30;102643.06;;;12.29;46.59
69574;BME280;62840;52.366;5.980;2023-05-02T12:29:56;102642.22;;;12.28;46.38
69574;BME280;62840;52.366;5.980;2023-05-02T12:32:29;102633.63;;;12.38;46.75
69574;BME280;62840;52.366;5.980;2023-05-02T12:35:00;102653.47;;;12.48;46.50
69574;BME280;62840;52.366;5.980;2023-05-02T12:37:27;102655.88;;;12.52;46.26
69574;BME280;62840;52.366;5.980;2023-05-02T12:39:53;102662.66;;;12.44;45.75
69574;BME280;62840;52.366;5.980;2023-05-02T12:42:21;102672.88;;;12.37;45.89
69574;BME280;62840;52.366;5.980;2023-05-02T12:44:49;102667.91;;;12.31;45.81
69574;BME280;62840;52.366;5.980;2023-05-02T12:47:16;102676.44;;;12.38;46.21
69574;BME280;62840;52.366;5.980;2023-05-02T12:49:49;102674.16;;;12.60;46.05
69574;BME280;62840;52.366;5.980;2023-05-02T12:52:19;102671.25;;;12.78;45.23
69574;BME280;62840;52.366;5.980;2023-05-02T12:54:46;102664.97;;;12.79;45.45
69574;BME280;62840;52.366;5.980;2023-05-02T12:57:22;102668.50;;;12.79;45.01
69574;BME280;62840;52.366;5.980;2023-05-02T12:59:50;102671.47;;;12.74;45.42
69574;BME280;62840;52.366;5.980;2023-05-02T13:02:17;102660.06;;;12.71;45.85
69574;BME280;62840;52.366;5.980;2023-05-02T13:04:42;102668.88;;;12.73;45.84
69574;BME280;62840;52.366;5.980;2023-05-02T13:07:08;102665.25;;;12.74;45.59
69574;BME280;62840;52.366;5.980;2023-05-02T13:09:36;102666.09;;;12.74;45.21